createdAt,value
2022-10-09T00:01:09.398Z,10.80
2022-10-09T00:03:37.500Z,10.85
2022-10-09T00:06:06.167Z,10.25
2022-10-09T00:08:34.656Z,9.95
2022-10-09T00:11:06.234Z,9.52
2022-10-09T00:13:33.267Z,9.85
2022-10-09T00:16:03.219Z,9.15
2022-10-09T00:18:29.848Z,7.57
2022-10-09T00:20:56.438Z,8.95
2022-10-09T00:23:23.056Z,6.68
2022-10-09T00:25:55.419Z,9.18
2022-10-09T00:28:24.477Z,10.20
2022-10-09T00:30:51.834Z,9.05
2022-10-09T00:33:19.471Z,9.57
2022-10-09T00:35:46.402Z,10.48
2022-10-09T00:38:13.635Z,8.23
2022-10-09T00:40:40.478Z,11.20
2022-10-09T00:43:15.858Z,7.20
2022-10-09T00:45:54.140Z,6.88
2022-10-09T00:48:21.883Z,7.70
2022-10-09T00:50:58.030Z,8.50
2022-10-09T00:53:28.765Z,11.52
2022-10-09T00:55:55.796Z,9.65
2022-10-09T00:58:23.692Z,7.80
2022-10-09T01:00:50.380Z,8.70
2022-10-09T01:03:16.957Z,9.73
2022-10-09T01:05:58.454Z,10.35
2022-10-09T01:08:54.634Z,10.88
2022-10-09T01:11:37.548Z,12.48
2022-10-09T01:14:16.340Z,9.82
2022-10-09T01:17:21.194Z,11.32
2022-10-09T01:20:07.379Z,9.88
2022-10-09T01:22:55.406Z,9.63
2022-10-09T01:25:36.262Z,10.70
2022-10-09T01:28:06.489Z,11.65
2022-10-09T01:30:35.148Z,9.77
2022-10-09T01:33:03.169Z,12.27
2022-10-09T01:35:31.078Z,10.23
2022-10-09T01:37:59.136Z,8.80
2022-10-09T01:40:26.996Z,12.40
2022-10-09T01:42:53.749Z,9.48
2022-10-09T01:45:20.591Z,8.23
2022-10-09T01:47:47.275Z,11.05
2022-10-09T01:50:30.528Z,10.32
2022-10-09T01:53:01.812Z,12.32
2022-10-09T01:55:37.423Z,11.40
2022-10-09T01:58:17.813Z,11.00
2022-10-09T02:00:51.630Z,10.55
2022-10-09T02:03:19.502Z,9.00
2022-10-09T02:05:50.081Z,9.70
2022-10-09T02:08:19.217Z,9.02
2022-10-09T02:10:49.268Z,8.65
2022-10-09T02:13:15.966Z,7.90
2022-10-09T02:15:53.643Z,10.48
2022-10-09T02:18:40.202Z,8.30
2022-10-09T02:21:20.986Z,7.32
2022-10-09T02:23:49.915Z,9.40
2022-10-09T02:26:17.227Z,8.27
2022-10-09T02:28:46.104Z,8.15
2022-10-09T02:31:23.335Z,10.30
2022-10-09T02:34:02.005Z,8.52
2022-10-09T02:36:29.809Z,9.68
2022-10-09T02:38:57.574Z,11.23
2022-10-09T02:41:24.856Z,10.18
2022-10-09T02:43:51.639Z,8.77
2022-10-09T02:46:19.017Z,10.75
2022-10-09T02:48:45.776Z,8.75
2022-10-09T02:51:12.496Z,8.63
2022-10-09T02:53:39.114Z,8.57
2022-10-09T02:56:06.115Z,8.27
2022-10-09T02:58:34.618Z,7.88
2022-10-09T03:01:01.597Z,7.90
2022-10-09T03:03:28.334Z,9.07
2022-10-09T03:06:10.780Z,10.48
2022-10-09T03:08:39.325Z,8.70
2022-10-09T03:11:06.699Z,8.05
2022-10-09T03:13:33.330Z,11.05
2022-10-09T03:16:08.276Z,12.60
2022-10-09T03:18:35.640Z,10.10
2022-10-09T03:21:08.711Z,8.02
2022-10-09T03:23:35.730Z,9.45
2022-10-09T03:26:11.217Z,8.13
2022-10-09T03:28:40.263Z,8.93
2022-10-09T03:31:08.154Z,9.20
2022-10-09T03:33:35.970Z,8.95
2022-10-09T03:36:04.178Z,8.27
2022-10-09T03:38:30.770Z,11.60
2022-10-09T03:41:01.875Z,8.50
2022-10-09T03:43:29.005Z,7.88
2022-10-09T03:46:00.341Z,9.13
2022-10-09T03:48:27.672Z,12.20
2022-10-09T03:50:54.241Z,8.23
2022-10-09T03:53:20.862Z,11.32
2022-10-09T03:55:47.441Z,11.30
2022-10-09T03:58:14.052Z,12.00
2022-10-09T04:00:40.920Z,9.10
2022-10-09T04:03:07.595Z,8.57
2022-10-09T04:05:35.216Z,11.63
2022-10-09T04:08:01.838Z,9.85
2022-10-09T04:10:28.583Z,9.95
2022-10-09T04:12:55.231Z,10.93
2022-10-09T04:15:21.813Z,12.52
2022-10-09T04:17:48.394Z,14.10
2022-10-09T04:20:15.123Z,10.80
2022-10-09T04:22:42.227Z,11.55
2022-10-09T04:25:09.347Z,11.25
2022-10-09T04:27:35.919Z,12.55
2022-10-09T04:30:02.541Z,10.70
2022-10-09T04:32:29.115Z,11.75
2022-10-09T04:34:55.700Z,11.77
2022-10-09T04:37:22.313Z,11.10
2022-10-09T04:39:48.992Z,15.48
2022-10-09T04:42:15.610Z,15.80
2022-10-09T04:44:42.241Z,12.27
2022-10-09T04:47:11.307Z,14.30
2022-10-09T04:49:38.158Z,15.75
2022-10-09T04:52:04.747Z,14.70
2022-10-09T04:54:31.384Z,13.70
2022-10-09T04:56:57.949Z,14.80
2022-10-09T04:59:24.551Z,16.48
2022-10-09T05:01:51.169Z,18.73
2022-10-09T05:04:17.827Z,16.70
2022-10-09T05:06:44.446Z,21.55
2022-10-09T05:09:11.061Z,20.55
2022-10-09T05:11:42.324Z,17.52
2022-10-09T05:14:09.368Z,18.30
2022-10-09T05:16:55.067Z,20.65
2022-10-09T05:19:23.261Z,18.08
2022-10-09T05:21:49.835Z,22.73
2022-10-09T05:24:16.463Z,23.75
2022-10-09T05:26:43.093Z,23.05
2022-10-09T05:29:09.727Z,18.55
2022-10-09T05:31:37.634Z,21.70
2022-10-09T05:34:04.891Z,20.17
2022-10-09T05:36:31.554Z,17.00
2022-10-09T05:38:58.247Z,15.52
2022-10-09T05:41:24.870Z,15.35
2022-10-09T05:43:51.499Z,15.13
2022-10-09T05:46:20.596Z,13.93
2022-10-09T05:48:55.416Z,14.23
2022-10-09T05:51:25.147Z,11.65
2022-10-09T05:53:52.455Z,15.25
2022-10-09T05:56:24.861Z,13.68
2022-10-09T05:59:05.508Z,12.13
2022-10-09T06:01:38.213Z,12.25
2022-10-09T06:04:05.953Z,10.77
2022-10-09T06:06:36.721Z,11.85
2022-10-09T06:09:04.102Z,9.23
2022-10-09T06:11:36.015Z,9.38
2022-10-09T06:14:06.313Z,9.77
2022-10-09T06:16:36.646Z,10.80
2022-10-09T06:19:04.685Z,10.57
2022-10-09T06:21:31.451Z,8.68
2022-10-09T06:24:00.647Z,8.82
2022-10-09T06:26:31.904Z,8.00
2022-10-09T06:29:01.014Z,9.02
2022-10-09T06:31:30.049Z,8.88
2022-10-09T06:33:59.843Z,7.03
2022-10-09T06:36:28.971Z,8.10
2022-10-09T06:38:55.974Z,9.23
2022-10-09T06:41:24.778Z,7.10
2022-10-09T06:44:05.433Z,9.13
2022-10-09T06:46:34.890Z,7.78
2022-10-09T06:49:03.184Z,7.47
2022-10-09T06:51:30.647Z,9.00
2022-10-09T06:53:59.752Z,6.50
2022-10-09T06:56:28.398Z,6.03
2022-10-09T06:58:55.290Z,7.93
2022-10-09T07:01:26.756Z,6.70
2022-10-09T07:03:58.920Z,6.78
2022-10-09T07:06:28.173Z,6.88
2022-10-09T07:08:58.682Z,6.03
2022-10-09T07:11:34.682Z,6.72
2022-10-09T07:14:04.055Z,9.13
2022-10-09T07:16:34.846Z,6.38
2022-10-09T07:19:03.823Z,6.18
2022-10-09T07:21:30.608Z,7.28
2022-10-09T07:24:00.425Z,6.90
2022-10-09T07:26:28.746Z,6.97
2022-10-09T07:28:56.290Z,8.68
2022-10-09T07:31:23.329Z,8.95
2022-10-09T07:33:51.723Z,6.03
2022-10-09T07:36:18.467Z,6.95
2022-10-09T07:38:49.171Z,7.22
2022-10-09T07:41:15.738Z,8.35
2022-10-09T07:43:43.039Z,6.90
2022-10-09T07:46:18.447Z,7.20
2022-10-09T07:48:46.014Z,9.15
2022-10-09T07:51:16.875Z,8.70
2022-10-09T07:53:43.901Z,11.25
2022-10-09T07:56:33.827Z,6.60
2022-10-09T07:59:02.901Z,7.50
2022-10-09T08:01:31.097Z,5.05
2022-10-09T08:03:58.472Z,8.15
2022-10-09T08:06:25.147Z,7.50
2022-10-09T08:08:53.846Z,7.45
2022-10-09T08:11:21.599Z,7.15
2022-10-09T08:13:49.587Z,10.93
2022-10-09T08:16:17.383Z,7.50
2022-10-09T08:18:44.015Z,5.63
2022-10-09T08:21:19.008Z,6.18
2022-10-09T08:23:46.014Z,5.55
2022-10-09T08:26:18.610Z,7.15
2022-10-09T08:28:49.896Z,7.72
2022-10-09T08:31:17.641Z,6.10
2022-10-09T08:33:44.659Z,6.68
2022-10-09T08:36:14.465Z,7.25
2022-10-09T08:38:48.753Z,7.65
2022-10-09T08:41:33.199Z,8.23
2022-10-09T08:44:05.277Z,9.90
2022-10-09T08:46:53.318Z,6.20
2022-10-09T08:49:29.210Z,9.02
2022-10-09T08:51:59.706Z,7.68
2022-10-09T08:54:36.572Z,7.45
2022-10-09T08:57:09.888Z,4.88
2022-10-09T08:59:36.632Z,7.03
2022-10-09T09:02:38.347Z,6.43
2022-10-09T09:05:36.436Z,6.72
2022-10-09T09:08:11.235Z,8.52
2022-10-09T09:10:42.778Z,6.88
2022-10-09T09:13:24.054Z,6.80
2022-10-09T09:16:08.204Z,5.90
2022-10-09T09:18:52.023Z,6.70
2022-10-09T09:21:32.434Z,6.30
2022-10-09T09:24:03.188Z,6.47
2022-10-09T09:26:30.409Z,6.40
2022-10-09T09:29:02.292Z,8.48
2022-10-09T09:31:35.682Z,7.43
2022-10-09T09:34:13.976Z,7.32
2022-10-09T09:36:51.846Z,6.90
2022-10-09T09:42:20.243Z,6.18
2022-10-09T09:44:57.729Z,8.43
2022-10-09T09:47:34.338Z,6.03
2022-10-09T09:50:03.791Z,6.50
2022-10-09T09:52:36.228Z,10.07
2022-10-09T09:55:03.539Z,6.72
2022-10-09T09:57:36.493Z,7.68
2022-10-09T10:00:09.902Z,8.30
2022-10-09T10:02:36.613Z,7.90
2022-10-09T10:05:25.530Z,5.40
2022-10-09T10:07:52.710Z,9.20
2022-10-09T10:10:25.968Z,7.07
2022-10-09T10:12:52.936Z,5.60
2022-10-09T10:15:30.331Z,6.68
2022-10-09T10:18:12.683Z,8.57
2022-10-09T10:21:04.878Z,8.45
2022-10-09T10:23:36.689Z,7.10
2022-10-09T10:26:25.608Z,8.05
2022-10-09T10:29:00.795Z,8.00
2022-10-09T10:31:53.452Z,7.07
2022-10-09T10:34:27.019Z,7.30
2022-10-09T10:37:03.364Z,9.55
2022-10-09T10:39:41.823Z,6.88
2022-10-09T10:42:16.995Z,8.35
2022-10-09T10:44:52.553Z,6.20
2022-10-09T10:47:23.923Z,7.75
2022-10-09T10:49:51.132Z,7.45
2022-10-09T10:52:17.721Z,6.93
2022-10-09T10:54:57.123Z,6.57
2022-10-09T10:57:38.558Z,6.68
2022-10-09T11:00:08.144Z,8.80
2022-10-09T11:02:59.447Z,6.20
2022-10-09T11:05:34.771Z,6.63
2022-10-09T11:08:24.448Z,6.80
2022-10-09T11:11:08.895Z,6.30
2022-10-09T11:14:05.531Z,5.53
2022-10-09T11:16:47.503Z,7.13
2022-10-09T11:19:45.202Z,7.70
2022-10-09T11:22:53.483Z,8.02
2022-10-09T11:25:23.050Z,7.75
2022-10-09T11:28:03.118Z,7.00
2022-10-09T11:30:39.903Z,8.18
2022-10-09T11:33:12.544Z,8.00
2022-10-09T11:35:49.660Z,9.32
2022-10-09T11:38:44.996Z,10.52
2022-10-09T11:41:12.270Z,7.60
2022-10-09T11:44:00.794Z,10.95
2022-10-09T11:46:50.211Z,5.70
2022-10-09T11:49:24.695Z,6.72
2022-10-09T11:52:03.192Z,6.18
2022-10-09T11:54:30.356Z,6.15
2022-10-09T11:57:05.180Z,7.03
2022-10-09T11:59:37.915Z,7.00
2022-10-09T12:02:19.851Z,5.60
2022-10-09T12:04:54.757Z,6.13
2022-10-09T12:07:30.894Z,6.63
2022-10-09T12:10:21.331Z,6.13
2022-10-09T12:12:59.826Z,9.18
2022-10-09T12:15:57.054Z,5.18
2022-10-09T12:18:28.846Z,6.03
2022-10-09T12:20:59.919Z,6.28
2022-10-09T12:23:31.742Z,5.00
2022-10-09T12:25:59.355Z,5.32
2022-10-09T12:28:41.545Z,4.90
2022-10-09T12:31:41.422Z,5.93
2022-10-09T12:34:29.455Z,6.20
2022-10-09T12:37:20.741Z,6.80
2022-10-09T12:39:49.018Z,6.63
2022-10-09T12:42:20.410Z,5.13
2022-10-09T12:44:48.926Z,6.13
2022-10-09T12:47:21.039Z,4.55
2022-10-09T12:49:56.609Z,5.57
2022-10-09T12:52:23.224Z,4.60
2022-10-09T12:54:49.810Z,4.82
2022-10-09T12:57:17.631Z,5.25
2022-10-09T12:59:46.527Z,5.00
2022-10-09T13:02:18.580Z,5.13
2022-10-09T13:04:57.451Z,4.33
2022-10-09T13:07:27.284Z,4.50
2022-10-09T13:10:07.195Z,6.82
2022-10-09T13:12:35.211Z,4.75
2022-10-09T13:15:24.407Z,3.90
2022-10-09T13:17:51.646Z,6.38
2022-10-09T13:20:29.246Z,4.90
2022-10-09T13:22:59.031Z,5.38
2022-10-09T13:25:28.155Z,4.35
2022-10-09T13:27:55.136Z,5.63
2022-10-09T13:30:21.899Z,6.03
2022-10-09T13:32:48.576Z,5.15
2022-10-09T13:35:15.347Z,5.85
2022-10-09T13:37:42.159Z,6.18
2022-10-09T13:40:15.861Z,4.82
2022-10-09T13:42:43.359Z,5.05
2022-10-09T13:45:10.451Z,4.97
2022-10-09T13:47:37.032Z,4.93
2022-10-09T13:50:04.093Z,3.88
2022-10-09T13:52:30.719Z,5.63
2022-10-09T13:54:57.363Z,4.07
2022-10-09T13:57:23.925Z,5.03
2022-10-09T13:59:50.750Z,3.97
2022-10-09T14:02:17.701Z,4.93
2022-10-09T14:04:44.372Z,3.85
2022-10-09T14:07:10.987Z,4.38
2022-10-09T14:09:37.704Z,4.38
2022-10-09T14:12:04.361Z,4.93
2022-10-09T14:14:31.176Z,3.65
2022-10-09T14:16:57.778Z,5.93
2022-10-09T14:19:28.124Z,3.03
2022-10-09T14:21:55.855Z,4.88
2022-10-09T14:24:22.928Z,3.35
2022-10-09T14:26:51.688Z,4.55
2022-10-09T14:29:18.633Z,6.03
2022-10-09T14:31:45.426Z,4.78
2022-10-09T14:34:14.517Z,3.65
2022-10-09T14:36:42.348Z,4.30
2022-10-09T14:39:09.283Z,5.07
2022-10-09T14:41:37.938Z,4.75
2022-10-09T14:44:05.790Z,5.65
2022-10-09T14:46:37.756Z,5.30
2022-10-09T14:49:07.968Z,3.33
2022-10-09T14:51:39.360Z,7.40
2022-10-09T14:54:07.031Z,5.88
2022-10-09T14:56:33.856Z,5.57
2022-10-09T14:59:01.161Z,5.88
2022-10-09T15:01:29.496Z,6.65
2022-10-09T15:03:56.395Z,4.25
2022-10-09T15:06:25.834Z,5.55
2022-10-09T15:08:55.937Z,5.30
2022-10-09T15:11:23.356Z,6.68
2022-10-09T15:13:50.010Z,6.97
2022-10-09T15:16:17.988Z,6.07
2022-10-09T15:18:45.835Z,7.03
2022-10-09T15:21:14.695Z,4.85
2022-10-09T15:23:41.663Z,6.18
2022-10-09T15:26:09.020Z,5.25
2022-10-09T15:28:40.531Z,3.05
2022-10-09T15:31:16.351Z,6.18
2022-10-09T15:33:42.936Z,4.05
2022-10-09T15:36:09.639Z,4.15
2022-10-09T15:38:36.224Z,5.15
2022-10-09T15:41:03.001Z,3.90
2022-10-09T15:43:29.652Z,4.70
2022-10-09T15:46:03.435Z,4.30
2022-10-09T15:48:30.189Z,4.30
2022-10-09T15:50:57.020Z,6.05
2022-10-09T15:53:24.653Z,5.60
2022-10-09T15:55:53.230Z,4.28
2022-10-09T15:58:20.455Z,9.23
2022-10-09T16:00:49.137Z,5.97
2022-10-09T16:03:18.032Z,6.00
2022-10-09T16:05:48.811Z,5.22
2022-10-09T16:08:17.278Z,5.03
2022-10-09T16:10:48.848Z,5.57
2022-10-09T16:13:16.159Z,5.07
2022-10-09T16:15:44.309Z,4.85
2022-10-09T16:18:11.450Z,4.95
2022-10-09T16:20:39.497Z,6.85
2022-10-09T16:23:06.998Z,5.07
2022-10-09T16:25:34.173Z,5.25
2022-10-09T16:28:00.764Z,6.32
2022-10-09T16:30:28.110Z,4.25
2022-10-09T16:32:54.688Z,4.00
2022-10-09T16:35:22.439Z,6.25
2022-10-09T16:37:52.011Z,5.13
2022-10-09T16:40:18.614Z,4.65
2022-10-09T16:42:45.446Z,4.32
2022-10-09T16:45:12.136Z,4.63
2022-10-09T16:47:40.465Z,3.97
2022-10-09T16:50:07.924Z,4.32
2022-10-09T16:52:34.611Z,5.30
2022-10-09T16:55:01.187Z,4.15
2022-10-09T16:57:28.240Z,3.80
2022-10-09T16:59:54.806Z,4.40
2022-10-09T17:02:21.407Z,3.45
2022-10-09T17:04:48.103Z,7.13
2022-10-09T17:07:15.361Z,4.35
2022-10-09T17:09:43.013Z,3.42
2022-10-09T17:12:11.119Z,5.03
2022-10-09T17:14:37.898Z,3.33
2022-10-09T17:17:05.706Z,6.90
2022-10-09T17:19:32.788Z,4.88
2022-10-09T17:22:00.768Z,3.42
2022-10-09T17:24:27.760Z,3.40
2022-10-09T17:26:54.612Z,4.63
2022-10-09T17:29:21.784Z,4.93
2022-10-09T17:31:48.829Z,4.57
2022-10-09T17:34:15.552Z,3.97
2022-10-09T17:36:44.011Z,4.35
2022-10-09T17:39:16.691Z,7.45
2022-10-09T17:41:48.351Z,4.45
2022-10-09T17:44:15.531Z,3.67
2022-10-09T17:46:42.643Z,3.80
2022-10-09T17:49:09.727Z,3.08
2022-10-09T17:51:39.703Z,3.92
2022-10-09T17:54:11.810Z,5.45
2022-10-09T17:56:39.352Z,6.82
2022-10-09T17:59:06.282Z,4.43
2022-10-09T18:01:33.071Z,6.70
2022-10-09T18:03:59.888Z,6.05
2022-10-09T18:06:27.316Z,6.30
2022-10-09T18:08:55.579Z,6.05
2022-10-09T18:11:24.003Z,5.90
2022-10-09T18:13:51.032Z,4.88
2022-10-09T18:16:35.189Z,6.43
2022-10-09T18:19:05.846Z,3.70
2022-10-09T18:21:34.082Z,5.10
2022-10-09T18:24:01.115Z,4.32
2022-10-09T18:26:27.751Z,5.13
2022-10-09T18:28:54.683Z,4.00
2022-10-09T18:31:23.701Z,7.20
2022-10-09T18:33:52.142Z,5.15
2022-10-09T18:36:24.494Z,5.43
2022-10-09T18:38:54.314Z,5.20
2022-10-09T18:41:22.498Z,4.38
2022-10-09T18:43:50.200Z,4.75
2022-10-09T18:46:19.071Z,6.43
2022-10-09T18:48:46.316Z,4.65
2022-10-09T18:51:18.369Z,5.32
2022-10-09T18:53:48.990Z,4.22
2022-10-09T18:56:17.890Z,4.40
2022-10-09T18:58:44.739Z,3.28
2022-10-09T19:01:11.984Z,3.40
2022-10-09T19:03:38.890Z,4.70
2022-10-09T19:06:05.876Z,4.22
2022-10-09T19:08:34.360Z,4.85
2022-10-09T19:11:01.143Z,6.72
2022-10-09T19:13:27.993Z,6.18
2022-10-09T19:15:58.367Z,4.65
2022-10-09T19:18:26.475Z,4.30
2022-10-09T19:20:53.326Z,4.38
2022-10-09T19:23:19.935Z,5.55
2022-10-09T19:25:51.599Z,4.43
2022-10-09T19:28:19.821Z,7.78
2022-10-09T19:30:47.346Z,4.20
2022-10-09T19:33:14.940Z,3.58
2022-10-09T19:35:53.908Z,3.35
2022-10-09T19:38:21.547Z,4.40
2022-10-09T19:40:48.876Z,4.25
2022-10-09T19:43:17.471Z,5.18
2022-10-09T19:45:44.763Z,4.22
2022-10-09T19:48:11.409Z,4.30
2022-10-09T19:50:43.075Z,4.63
2022-10-09T19:53:10.256Z,5.15
2022-10-09T19:55:37.071Z,3.63
2022-10-09T19:58:03.876Z,5.22
2022-10-09T20:00:31.059Z,5.05
2022-10-09T20:02:57.697Z,5.93
2022-10-09T20:05:24.350Z,4.47
2022-10-09T20:07:50.983Z,5.65
2022-10-09T20:10:17.979Z,6.60
2022-10-09T20:12:44.638Z,6.70
2022-10-09T20:15:11.580Z,6.00
2022-10-09T20:17:38.195Z,6.15
2022-10-09T20:20:06.424Z,4.45
2022-10-09T20:22:33.052Z,4.03
2022-10-09T20:24:59.641Z,5.20
2022-10-09T20:27:26.215Z,5.43
2022-10-09T20:29:53.724Z,5.22
2022-10-09T20:32:20.442Z,5.15
2022-10-09T20:34:47.132Z,5.40
2022-10-09T20:37:13.718Z,5.50
2022-10-09T20:39:40.299Z,4.90
2022-10-09T20:42:06.960Z,6.03
2022-10-09T20:44:33.817Z,4.80
2022-10-09T20:47:00.382Z,6.57
2022-10-09T20:49:27.003Z,6.20
2022-10-09T20:51:53.808Z,4.65
2022-10-09T20:54:21.743Z,6.53
2022-10-09T20:56:49.632Z,6.28
2022-10-09T20:59:17.272Z,4.97
2022-10-09T21:01:44.864Z,5.10
2022-10-09T21:04:12.308Z,5.82
2022-10-09T21:06:39.285Z,4.13
2022-10-09T21:09:06.539Z,7.45
2022-10-09T21:11:34.842Z,6.93
2022-10-09T21:14:02.636Z,4.43
2022-10-09T21:16:29.851Z,5.95
2022-10-09T21:18:59.272Z,6.40
2022-10-09T21:21:27.475Z,6.00
2022-10-09T21:23:56.582Z,5.32
2022-10-09T21:26:24.207Z,5.50
2022-10-09T21:28:54.327Z,5.47
2022-10-09T21:31:26.399Z,7.20
2022-10-09T21:33:52.988Z,7.80
2022-10-09T21:37:19.870Z,5.50
2022-10-09T21:39:36.450Z,5.25
2022-10-09T21:42:03.119Z,5.72
2022-10-09T21:44:30.161Z,5.72
2022-10-09T21:46:56.779Z,6.38
2022-10-09T21:49:25.307Z,5.90
2022-10-09T21:51:51.922Z,4.78
2022-10-09T21:54:19.095Z,5.32
2022-10-09T21:56:45.746Z,5.28
2022-10-09T21:59:12.542Z,5.85
2022-10-09T22:01:39.264Z,6.05
2022-10-09T22:04:05.920Z,7.57
2022-10-09T22:06:32.483Z,12.50
2022-10-09T22:08:59.992Z,8.35
2022-10-09T22:11:26.632Z,9.50
2022-10-09T22:13:55.731Z,7.93
2022-10-09T22:16:22.384Z,5.63
2022-10-09T22:18:49.003Z,5.82
2022-10-09T22:21:16.366Z,5.32
2022-10-09T22:23:43.426Z,5.78
2022-10-09T22:26:22.135Z,4.97
2022-10-09T22:28:49.820Z,7.20
2022-10-09T22:31:20.660Z,5.53
2022-10-09T22:33:58.402Z,7.25
2022-10-09T22:36:27.211Z,5.78
2022-10-09T22:38:55.593Z,9.77
2022-10-09T22:41:23.511Z,8.65
2022-10-09T22:43:52.731Z,8.05
2022-10-09T22:46:25.311Z,5.65
2022-10-09T22:48:52.474Z,4.60
2022-10-09T22:51:21.352Z,6.78
2022-10-09T22:53:48.451Z,6.60
2022-10-09T22:56:19.790Z,5.50
2022-10-09T22:58:46.967Z,5.45
2022-10-09T23:01:15.605Z,7.20
2022-10-09T23:03:42.231Z,8.05
2022-10-09T23:06:19.002Z,6.15
2022-10-09T23:08:48.240Z,6.13
2022-10-09T23:11:16.290Z,7.07
2022-10-09T23:13:43.658Z,6.75
2022-10-09T23:16:12.624Z,5.53
2022-10-09T23:18:40.479Z,7.43
2022-10-09T23:21:11.060Z,5.68
2022-10-09T23:23:37.688Z,4.82
2022-10-09T23:26:06.416Z,7.60
2022-10-09T23:28:33.945Z,6.22
2022-10-09T23:31:11.207Z,6.75
2022-10-09T23:33:39.637Z,5.47
2022-10-09T23:36:08.061Z,6.35
2022-10-09T23:38:35.995Z,6.57
2022-10-09T23:41:05.702Z,7.47
2022-10-09T23:43:34.455Z,4.30
2022-10-09T23:46:04.203Z,8.40
2022-10-09T23:48:31.163Z,7.45
2022-10-09T23:50:58.808Z,6.97
2022-10-09T23:53:26.874Z,8.13
2022-10-09T23:55:54.366Z,8.60
2022-10-09T23:58:22.305Z,5.60
